sensor_id;sensor_type;location;lat;lon;timestamp;P1;durP1;ratioP1;P2;durP2;ratioP2
24407;SDS011;12542;50.924;4.516;2023-02-15T00:01:53;56.50;;;27.25;;
24407;SDS011;12542;50.924;4.516;2023-02-15T00:04:20;62.22;;;31.27;;
24407;SDS011;12542;50.924;4.516;2023-02-15T00:06:48;62.03;;;28.48;;
24407;SDS011;12542;50.924;4.516;2023-02-15T00:09:14;61.08;;;28.58;;
24407;SDS011;12542;50.924;4.516;2023-02-15T00:11:40;55.80;;;29.27;;
24407;SDS011;12542;50.924;4.516;2023-02-15T00:14:07;56.10;;;29.42;;
24407;SDS011;12542;50.924;4.516;2023-02-15T00:16:35;60.03;;;29.80;;
24407;SDS011;12542;50.924;4.516;2023-02-15T00:19:01;60.83;;;30.75;;
24407;SDS011;12542;50.924;4.516;2023-02-15T00:21:27;62.67;;;29.27;;
24407;SDS011;12542;50.924;4.516;2023-02-15T00:23:54;72.93;;;37.30;;
24407;SDS011;12542;50.924;4.516;2023-02-15T00:26:21;66.15;;;32.42;;
24407;SDS011;12542;50.924;4.516;2023-02-15T00:28:47;57.80;;;29.65;;
24407;SDS011;12542;50.924;4.516;2023-02-15T00:31:12;71.32;;;34.55;;
24407;SDS011;12542;50.924;4.516;2023-02-15T00:33:39;66.90;;;31.85;;
24407;SDS011;12542;50.924;4.516;2023-02-15T00:36:05;56.83;;;26.95;;
24407;SDS011;12542;50.924;4.516;2023-02-15T00:38:32;64.43;;;32.78;;
24407;SDS011;12542;50.924;4.516;2023-02-15T00:41:00;67.68;;;32.67;;
24407;SDS011;12542;50.924;4.516;2023-02-15T00:43:27;68.65;;;31.13;;
24407;SDS011;12542;50.924;4.516;2023-02-15T00:45:53;60.15;;;28.95;;
24407;SDS011;12542;50.924;4.516;2023-02-15T00:48:19;62.97;;;31.02;;
24407;SDS011;12542;50.924;4.516;2023-02-15T00:50:47;56.53;;;28.23;;
24407;SDS011;12542;50.924;4.516;2023-02-15T00:53:14;49.58;;;26.52;;
24407;SDS011;12542;50.924;4.516;2023-02-15T00:55:40;51.72;;;26.67;;
24407;SDS011;12542;50.924;4.516;2023-02-15T00:58:07;56.97;;;26.98;;
24407;SDS011;12542;50.924;4.516;2023-02-15T01:00:35;53.63;;;26.52;;
24407;SDS011;12542;50.924;4.516;2023-02-15T01:03:01;50.75;;;25.77;;
24407;SDS011;12542;50.924;4.516;2023-02-15T01:05:27;53.47;;;27.85;;
24407;SDS011;12542;50.924;4.516;2023-02-15T01:07:54;57.28;;;26.27;;
24407;SDS011;12542;50.924;4.516;2023-02-15T01:10:20;55.25;;;25.40;;
24407;SDS011;12542;50.924;4.516;2023-02-15T01:12:46;50.03;;;25.58;;
24407;SDS011;12542;50.924;4.516;2023-02-15T01:15:14;49.45;;;25.67;;
24407;SDS011;12542;50.924;4.516;2023-02-15T01:17:39;51.97;;;26.83;;
24407;SDS011;12542;50.924;4.516;2023-02-15T01:20:06;53.15;;;25.73;;
24407;SDS011;12542;50.924;4.516;2023-02-15T01:22:32;58.13;;;28.95;;
24407;SDS011;12542;50.924;4.516;2023-02-15T01:24:57;50.45;;;26.17;;
24407;SDS011;12542;50.924;4.516;2023-02-15T01:27:23;54.58;;;27.13;;
24407;SDS011;12542;50.924;4.516;2023-02-15T01:29:51;59.33;;;28.05;;
24407;SDS011;12542;50.924;4.516;2023-02-15T01:32:17;49.38;;;25.52;;
24407;SDS011;12542;50.924;4.516;2023-02-15T01:34:42;54.60;;;26.88;;
24407;SDS011;12542;50.924;4.516;2023-02-15T01:37:08;54.88;;;28.55;;
24407;SDS011;12542;50.924;4.516;2023-02-15T01:39:36;52.33;;;26.15;;
24407;SDS011;12542;50.924;4.516;2023-02-15T01:42:01;57.90;;;27.33;;
24407;SDS011;12542;50.924;4.516;2023-02-15T01:47:39;51.30;;;27.80;;
24407;SDS011;12542;50.924;4.516;2023-02-15T01:50:09;59.88;;;27.80;;
24407;SDS011;12542;50.924;4.516;2023-02-15T01:53:17;52.58;;;26.45;;
24407;SDS011;12542;50.924;4.516;2023-02-15T01:58:43;55.00;;;26.35;;
24407;SDS011;12542;50.924;4.516;2023-02-15T02:01:10;62.97;;;29.30;;
24407;SDS011;12542;50.924;4.516;2023-02-15T02:03:39;53.72;;;27.40;;
24407;SDS011;12542;50.924;4.516;2023-02-15T02:06:10;52.47;;;25.77;;
24407;SDS011;12542;50.924;4.516;2023-02-15T02:08:36;54.33;;;25.52;;
24407;SDS011;12542;50.924;4.516;2023-02-15T02:11:02;50.75;;;26.10;;
24407;SDS011;12542;50.924;4.516;2023-02-15T02:13:34;55.13;;;26.58;;
24407;SDS011;12542;50.924;4.516;2023-02-15T02:16:05;60.67;;;29.58;;
24407;SDS011;12542;50.924;4.516;2023-02-15T02:49:35;54.58;;;27.45;;
24407;SDS011;12542;50.924;4.516;2023-02-15T02:52:07;59.72;;;28.55;;
24407;SDS011;12542;50.924;4.516;2023-02-15T02:54:53;57.00;;;26.45;;
24407;SDS011;12542;50.924;4.516;2023-02-15T02:57:21;54.83;;;29.15;;
24407;SDS011;12542;50.924;4.516;2023-02-15T02:59:49;53.97;;;25.98;;
24407;SDS011;12542;50.924;4.516;2023-02-15T03:02:18;59.05;;;28.13;;
24407;SDS011;12542;50.924;4.516;2023-02-15T03:04:54;54.78;;;27.67;;
24407;SDS011;12542;50.924;4.516;2023-02-15T03:07:28;59.47;;;28.38;;
24407;SDS011;12542;50.924;4.516;2023-02-15T03:09:57;57.40;;;27.75;;
24407;SDS011;12542;50.924;4.516;2023-02-15T03:12:28;51.92;;;26.80;;
24407;SDS011;12542;50.924;4.516;2023-02-15T03:15:10;63.78;;;30.10;;
24407;SDS011;12542;50.924;4.516;2023-02-15T03:17:41;59.00;;;28.75;;
24407;SDS011;12542;50.924;4.516;2023-02-15T03:20:12;60.63;;;26.90;;
24407;SDS011;12542;50.924;4.516;2023-02-15T03:22:51;48.42;;;22.15;;
24407;SDS011;12542;50.924;4.516;2023-02-15T03:25:32;60.35;;;29.13;;
24407;SDS011;12542;50.924;4.516;2023-02-15T03:28:08;57.63;;;28.10;;
24407;SDS011;12542;50.924;4.516;2023-02-15T03:30:37;53.45;;;27.52;;
24407;SDS011;12542;50.924;4.516;2023-02-15T03:33:05;55.85;;;28.05;;
24407;SDS011;12542;50.924;4.516;2023-02-15T03:38:37;60.55;;;26.73;;
24407;SDS011;12542;50.924;4.516;2023-02-15T03:41:14;50.80;;;26.20;;
24407;SDS011;12542;50.924;4.516;2023-02-15T03:44:02;61.08;;;29.20;;
24407;SDS011;12542;50.924;4.516;2023-02-15T03:46:39;54.03;;;27.25;;
24407;SDS011;12542;50.924;4.516;2023-02-15T03:49:31;53.47;;;25.80;;
24407;SDS011;12542;50.924;4.516;2023-02-15T03:52:12;62.72;;;29.83;;
24407;SDS011;12542;50.924;4.516;2023-02-15T03:54:41;55.65;;;26.52;;
24407;SDS011;12542;50.924;4.516;2023-02-15T03:57:09;54.28;;;26.45;;
24407;SDS011;12542;50.924;4.516;2023-02-15T03:59:57;59.75;;;28.75;;
24407;SDS011;12542;50.924;4.516;2023-02-15T04:05:26;64.18;;;30.08;;
24407;SDS011;12542;50.924;4.516;2023-02-15T04:07:52;50.58;;;27.73;;
24407;SDS011;12542;50.924;4.516;2023-02-15T04:10:17;56.58;;;27.45;;
24407;SDS011;12542;50.924;4.516;2023-02-15T04:13:03;51.03;;;27.50;;
24407;SDS011;12542;50.924;4.516;2023-02-15T04:15:29;55.92;;;26.25;;
24407;SDS011;12542;50.924;4.516;2023-02-15T04:18:13;44.23;;;20.70;;
24407;SDS011;12542;50.924;4.516;2023-02-15T04:20:39;59.78;;;25.83;;
24407;SDS011;12542;50.924;4.516;2023-02-15T04:23:26;52.42;;;25.10;;
24407;SDS011;12542;50.924;4.516;2023-02-15T04:26:10;42.87;;;21.77;;
24407;SDS011;12542;50.924;4.516;2023-02-15T04:28:36;47.67;;;24.52;;
24407;SDS011;12542;50.924;4.516;2023-02-15T04:31:01;53.85;;;26.73;;
24407;SDS011;12542;50.924;4.516;2023-02-15T04:33:27;51.80;;;25.45;;
24407;SDS011;12542;50.924;4.516;2023-02-15T04:35:53;52.88;;;24.58;;
24407;SDS011;12542;50.924;4.516;2023-02-15T04:38:19;57.50;;;26.92;;
24407;SDS011;12542;50.924;4.516;2023-02-15T04:40:48;58.88;;;26.67;;
24407;SDS011;12542;50.924;4.516;2023-02-15T04:43:18;67.30;;;29.17;;
24407;SDS011;12542;50.924;4.516;2023-02-15T04:45:50;54.22;;;26.50;;
24407;SDS011;12542;50.924;4.516;2023-02-15T04:48:17;58.75;;;26.83;;
24407;SDS011;12542;50.924;4.516;2023-02-15T04:50:43;55.97;;;27.38;;
24407;SDS011;12542;50.924;4.516;2023-02-15T04:53:09;55.42;;;27.65;;
24407;SDS011;12542;50.924;4.516;2023-02-15T04:55:35;52.95;;;25.95;;
24407;SDS011;12542;50.924;4.516;2023-02-15T04:58:04;57.72;;;28.10;;
24407;SDS011;12542;50.924;4.516;2023-02-15T05:00:30;51.35;;;26.27;;
24407;SDS011;12542;50.924;4.516;2023-02-15T05:02:55;60.10;;;27.73;;
24407;SDS011;12542;50.924;4.516;2023-02-15T05:05:21;57.17;;;25.92;;
24407;SDS011;12542;50.924;4.516;2023-02-15T05:07:47;58.53;;;26.52;;
24407;SDS011;12542;50.924;4.516;2023-02-15T05:10:12;54.03;;;27.42;;
24407;SDS011;12542;50.924;4.516;2023-02-15T05:12:38;56.28;;;27.90;;
24407;SDS011;12542;50.924;4.516;2023-02-15T05:15:06;53.65;;;26.58;;
24407;SDS011;12542;50.924;4.516;2023-02-15T05:17:32;57.63;;;27.27;;
24407;SDS011;12542;50.924;4.516;2023-02-15T05:19:58;51.67;;;25.13;;
24407;SDS011;12542;50.924;4.516;2023-02-15T05:22:24;51.63;;;25.60;;
24407;SDS011;12542;50.924;4.516;2023-02-15T05:24:49;55.90;;;25.40;;
24407;SDS011;12542;50.924;4.516;2023-02-15T05:27:34;55.70;;;27.30;;
24407;SDS011;12542;50.924;4.516;2023-02-15T05:30:18;56.30;;;27.57;;
24407;SDS011;12542;50.924;4.516;2023-02-15T05:32:43;53.42;;;27.23;;
24407;SDS011;12542;50.924;4.516;2023-02-15T05:35:13;54.10;;;25.63;;
24407;SDS011;12542;50.924;4.516;2023-02-15T05:37:40;54.95;;;27.48;;
24407;SDS011;12542;50.924;4.516;2023-02-15T05:40:07;52.95;;;25.90;;
24407;SDS011;12542;50.924;4.516;2023-02-15T05:42:33;57.33;;;27.65;;
24407;SDS011;12542;50.924;4.516;2023-02-15T05:45:02;60.97;;;27.77;;
24407;SDS011;12542;50.924;4.516;2023-02-15T05:47:28;64.25;;;27.95;;
24407;SDS011;12542;50.924;4.516;2023-02-15T05:49:54;60.85;;;28.75;;
24407;SDS011;12542;50.924;4.516;2023-02-15T05:52:20;63.00;;;29.58;;
24407;SDS011;12542;50.924;4.516;2023-02-15T05:54:45;55.83;;;26.60;;
24407;SDS011;12542;50.924;4.516;2023-02-15T05:57:11;58.60;;;27.85;;
24407;SDS011;12542;50.924;4.516;2023-02-15T05:59:37;58.65;;;26.48;;
24407;SDS011;12542;50.924;4.516;2023-02-15T06:02:02;54.85;;;26.48;;
24407;SDS011;12542;50.924;4.516;2023-02-15T06:04:28;53.40;;;26.67;;
24407;SDS011;12542;50.924;4.516;2023-02-15T06:06:54;54.08;;;26.80;;
24407;SDS011;12542;50.924;4.516;2023-02-15T06:09:19;56.88;;;27.85;;
24407;SDS011;12542;50.924;4.516;2023-02-15T06:11:45;59.63;;;28.42;;
24407;SDS011;12542;50.924;4.516;2023-02-15T06:14:15;55.15;;;26.33;;
24407;SDS011;12542;50.924;4.516;2023-02-15T06:16:41;59.28;;;27.30;;
24407;SDS011;12542;50.924;4.516;2023-02-15T06:19:07;58.45;;;27.30;;
24407;SDS011;12542;50.924;4.516;2023-02-15T06:21:33;59.58;;;29.05;;
24407;SDS011;12542;50.924;4.516;2023-02-15T06:23:58;57.33;;;29.50;;
24407;SDS011;12542;50.924;4.516;2023-02-15T06:26:24;63.20;;;30.50;;
24407;SDS011;12542;50.924;4.516;2023-02-15T06:28:50;65.43;;;29.08;;
24407;SDS011;12542;50.924;4.516;2023-02-15T06:31:16;56.78;;;28.52;;
24407;SDS011;12542;50.924;4.516;2023-02-15T06:33:41;58.55;;;29.02;;
24407;SDS011;12542;50.924;4.516;2023-02-15T06:36:07;57.53;;;28.73;;
24407;SDS011;12542;50.924;4.516;2023-02-15T06:38:33;65.22;;;29.08;;
24407;SDS011;12542;50.924;4.516;2023-02-15T06:40:59;59.15;;;28.58;;
24407;SDS011;12542;50.924;4.516;2023-02-15T06:43:25;59.65;;;29.42;;
24407;SDS011;12542;50.924;4.516;2023-02-15T06:45:50;63.97;;;29.70;;
24407;SDS011;12542;50.924;4.516;2023-02-15T06:48:16;62.08;;;28.77;;
24407;SDS011;12542;50.924;4.516;2023-02-15T06:50:44;61.65;;;28.10;;
24407;SDS011;12542;50.924;4.516;2023-02-15T06:53:10;62.83;;;28.70;;
24407;SDS011;12542;50.924;4.516;2023-02-15T06:55:35;68.55;;;29.65;;
24407;SDS011;12542;50.924;4.516;2023-02-15T06:58:01;62.15;;;29.15;;
24407;SDS011;12542;50.924;4.516;2023-02-15T07:00:27;63.35;;;27.35;;
24407;SDS011;12542;50.924;4.516;2023-02-15T07:02:53;56.67;;;28.00;;
24407;SDS011;12542;50.924;4.516;2023-02-15T07:05:23;62.90;;;28.45;;
24407;SDS011;12542;50.924;4.516;2023-02-15T07:07:49;62.15;;;28.83;;
24407;SDS011;12542;50.924;4.516;2023-02-15T07:10:15;63.28;;;31.10;;
24407;SDS011;12542;50.924;4.516;2023-02-15T07:12:41;56.22;;;28.92;;
24407;SDS011;12542;50.924;4.516;2023-02-15T07:15:11;59.58;;;29.77;;
24407;SDS011;12542;50.924;4.516;2023-02-15T07:17:42;68.40;;;31.90;;
24407;SDS011;12542;50.924;4.516;2023-02-15T07:20:13;59.80;;;29.33;;
24407;SDS011;12542;50.924;4.516;2023-02-15T07:22:43;57.85;;;28.42;;
24407;SDS011;12542;50.924;4.516;2023-02-15T07:25:09;72.30;;;30.20;;
24407;SDS011;12542;50.924;4.516;2023-02-15T07:27:36;55.92;;;26.73;;
24407;SDS011;12542;50.924;4.516;2023-02-15T07:30:02;56.45;;;28.33;;
24407;SDS011;12542;50.924;4.516;2023-02-15T07:32:29;51.50;;;26.73;;
24407;SDS011;12542;50.924;4.516;2023-02-15T07:34:56;60.42;;;28.02;;
24407;SDS011;12542;50.924;4.516;2023-02-15T07:37:22;52.20;;;26.88;;
24407;SDS011;12542;50.924;4.516;2023-02-15T07:39:47;51.65;;;26.58;;
24407;SDS011;12542;50.924;4.516;2023-02-15T07:42:15;44.30;;;25.55;;
24407;SDS011;12542;50.924;4.516;2023-02-15T07:44:44;50.67;;;26.83;;
24407;SDS011;12542;50.924;4.516;2023-02-15T07:47:11;49.10;;;26.98;;
24407;SDS011;12542;50.924;4.516;2023-02-15T07:49:37;52.03;;;26.50;;
24407;SDS011;12542;50.924;4.516;2023-02-15T07:52:03;51.17;;;26.02;;
24407;SDS011;12542;50.924;4.516;2023-02-15T07:54:29;56.38;;;26.50;;
24407;SDS011;12542;50.924;4.516;2023-02-15T07:56:56;46.08;;;26.00;;
24407;SDS011;12542;50.924;4.516;2023-02-15T07:59:22;54.72;;;26.58;;
24407;SDS011;12542;50.924;4.516;2023-02-15T08:01:49;50.75;;;26.27;;
24407;SDS011;12542;50.924;4.516;2023-02-15T08:04:14;45.55;;;26.13;;
24407;SDS011;12542;50.924;4.516;2023-02-15T08:06:40;46.83;;;25.25;;
24407;SDS011;12542;50.924;4.516;2023-02-15T08:09:06;47.13;;;26.40;;
24407;SDS011;12542;50.924;4.516;2023-02-15T08:11:37;48.15;;;25.33;;
24407;SDS011;12542;50.924;4.516;2023-02-15T08:14:17;47.28;;;26.02;;
24407;SDS011;12542;50.924;4.516;2023-02-15T08:16:52;45.22;;;25.40;;
24407;SDS011;12542;50.924;4.516;2023-02-15T08:19:25;47.13;;;26.33;;
24407;SDS011;12542;50.924;4.516;2023-02-15T08:21:57;48.83;;;27.35;;
24407;SDS011;12542;50.924;4.516;2023-02-15T08:24:25;43.10;;;25.42;;
24407;SDS011;12542;50.924;4.516;2023-02-15T08:26:52;46.50;;;25.95;;
24407;SDS011;12542;50.924;4.516;2023-02-15T08:29:19;49.22;;;26.75;;
24407;SDS011;12542;50.924;4.516;2023-02-15T08:31:52;43.15;;;25.67;;
24407;SDS011;12542;50.924;4.516;2023-02-15T08:34:19;43.95;;;26.55;;
24407;SDS011;12542;50.924;4.516;2023-02-15T08:36:45;46.17;;;24.73;;
24407;SDS011;12542;50.924;4.516;2023-02-15T08:39:11;40.03;;;25.23;;
24407;SDS011;12542;50.924;4.516;2023-02-15T08:41:38;40.42;;;25.70;;
24407;SDS011;12542;50.924;4.516;2023-02-15T08:44:07;42.05;;;25.30;;
24407;SDS011;12542;50.924;4.516;2023-02-15T08:46:35;42.60;;;25.55;;
24407;SDS011;12542;50.924;4.516;2023-02-15T08:49:02;45.42;;;25.95;;
24407;SDS011;12542;50.924;4.516;2023-02-15T08:51:30;44.90;;;26.42;;
24407;SDS011;12542;50.924;4.516;2023-02-15T08:53:58;44.88;;;26.83;;
24407;SDS011;12542;50.924;4.516;2023-02-15T08:56:28;38.85;;;23.52;;
24407;SDS011;12542;50.924;4.516;2023-02-15T08:58:57;41.40;;;25.17;;
24407;SDS011;12542;50.924;4.516;2023-02-15T09:01:24;43.40;;;24.30;;
24407;SDS011;12542;50.924;4.516;2023-02-15T09:03:51;41.03;;;23.50;;
24407;SDS011;12542;50.924;4.516;2023-02-15T09:06:21;42.28;;;24.02;;
24407;SDS011;12542;50.924;4.516;2023-02-15T09:08:50;42.83;;;25.08;;
24407;SDS011;12542;50.924;4.516;2023-02-15T09:11:23;43.47;;;25.42;;
24407;SDS011;12542;50.924;4.516;2023-02-15T09:13:52;43.58;;;24.55;;
24407;SDS011;12542;50.924;4.516;2023-02-15T09:16:23;40.50;;;24.90;;
24407;SDS011;12542;50.924;4.516;2023-02-15T09:18:50;40.65;;;23.60;;
24407;SDS011;12542;50.924;4.516;2023-02-15T09:21:18;41.47;;;23.45;;
24407;SDS011;12542;50.924;4.516;2023-02-15T09:23:47;40.15;;;23.77;;
24407;SDS011;12542;50.924;4.516;2023-02-15T09:26:20;40.92;;;23.75;;
24407;SDS011;12542;50.924;4.516;2023-02-15T09:28:50;42.80;;;23.67;;
24407;SDS011;12542;50.924;4.516;2023-02-15T09:31:18;48.40;;;24.08;;
24407;SDS011;12542;50.924;4.516;2023-02-15T09:33:46;44.38;;;23.85;;
24407;SDS011;12542;50.924;4.516;2023-02-15T09:39:13;42.20;;;23.50;;
24407;SDS011;12542;50.924;4.516;2023-02-15T10:06:32;42.85;;;18.15;;
24407;SDS011;12542;50.924;4.516;2023-02-15T10:28:28;38.70;;;19.00;;
24407;SDS011;12542;50.924;4.516;2023-02-15T10:31:10;39.78;;;18.48;;
24407;SDS011;12542;50.924;4.516;2023-02-15T10:33:46;37.35;;;18.77;;
24407;SDS011;12542;50.924;4.516;2023-02-15T10:39:28;39.20;;;18.73;;
24407;SDS011;12542;50.924;4.516;2023-02-15T10:50:07;36.92;;;18.88;;
24407;SDS011;12542;50.924;4.516;2023-02-15T10:58:38;39.63;;;19.27;;
24407;SDS011;12542;50.924;4.516;2023-02-15T11:11:07;36.83;;;19.25;;
24407;SDS011;12542;50.924;4.516;2023-02-15T11:13:07;41.33;;;19.05;;
24407;SDS011;12542;50.924;4.516;2023-02-15T11:18:11;45.45;;;19.88;;
24407;SDS011;12542;50.924;4.516;2023-02-15T11:20:55;38.03;;;19.45;;
24407;SDS011;12542;50.924;4.516;2023-02-15T11:23:21;40.72;;;20.52;;
24407;SDS011;12542;50.924;4.516;2023-02-15T11:25:54;45.35;;;19.85;;
24407;SDS011;12542;50.924;4.516;2023-02-15T11:31:02;35.58;;;18.80;;
24407;SDS011;12542;50.924;4.516;2023-02-15T11:33:50;41.05;;;21.98;;
24407;SDS011;12542;50.924;4.516;2023-02-15T11:36:33;39.03;;;19.88;;
24407;SDS011;12542;50.924;4.516;2023-02-15T11:39:02;39.17;;;18.95;;
24407;SDS011;12542;50.924;4.516;2023-02-15T11:41:41;40.10;;;20.90;;
24407;SDS011;12542;50.924;4.516;2023-02-15T11:47:11;39.65;;;20.42;;
24407;SDS011;12542;50.924;4.516;2023-02-15T11:49:38;42.75;;;20.02;;
24407;SDS011;12542;50.924;4.516;2023-02-15T11:52:05;42.72;;;21.08;;
24407;SDS011;12542;50.924;4.516;2023-02-15T11:54:40;40.42;;;20.33;;
24407;SDS011;12542;50.924;4.516;2023-02-15T11:57:26;38.67;;;19.52;;
24407;SDS011;12542;50.924;4.516;2023-02-15T12:00:01;39.33;;;20.70;;
24407;SDS011;12542;50.924;4.516;2023-02-15T12:02:33;36.85;;;20.92;;
24407;SDS011;12542;50.924;4.516;2023-02-15T12:05:04;40.83;;;20.73;;
24407;SDS011;12542;50.924;4.516;2023-02-15T12:07:40;37.85;;;20.30;;
24407;SDS011;12542;50.924;4.516;2023-02-15T12:10:29;40.95;;;20.33;;
24407;SDS011;12542;50.924;4.516;2023-02-15T12:13:34;47.20;;;23.10;;
24407;SDS011;12542;50.924;4.516;2023-02-15T12:15:54;41.42;;;20.92;;
24407;SDS011;12542;50.924;4.516;2023-02-15T12:21:05;41.95;;;22.40;;
24407;SDS011;12542;50.924;4.516;2023-02-15T12:23:41;44.72;;;22.63;;
24407;SDS011;12542;50.924;4.516;2023-02-15T12:26:13;41.85;;;22.73;;
24407;SDS011;12542;50.924;4.516;2023-02-15T12:28:42;40.90;;;22.55;;
24407;SDS011;12542;50.924;4.516;2023-02-15T12:31:21;42.75;;;23.02;;
24407;SDS011;12542;50.924;4.516;2023-02-15T12:33:53;45.53;;;22.75;;
24407;SDS011;12542;50.924;4.516;2023-02-15T12:36:32;45.13;;;23.50;;
24407;SDS011;12542;50.924;4.516;2023-02-15T12:41:38;70.35;;;43.80;;
24407;SDS011;12542;50.924;4.516;2023-02-15T12:44:20;46.15;;;26.90;;
24407;SDS011;12542;50.924;4.516;2023-02-15T12:49:23;46.15;;;24.52;;
24407;SDS011;12542;50.924;4.516;2023-02-15T12:51:51;44.78;;;23.80;;
24407;SDS011;12542;50.924;4.516;2023-02-15T12:54:35;40.47;;;22.05;;
24407;SDS011;12542;50.924;4.516;2023-02-15T13:02:36;44.08;;;23.05;;
24407;SDS011;12542;50.924;4.516;2023-02-15T13:07:49;42.53;;;22.20;;
24407;SDS011;12542;50.924;4.516;2023-02-15T13:10:22;42.20;;;22.35;;
24407;SDS011;12542;50.924;4.516;2023-02-15T13:12:49;41.40;;;22.80;;
24407;SDS011;12542;50.924;4.516;2023-02-15T13:15:37;61.45;;;41.42;;
24407;SDS011;12542;50.924;4.516;2023-02-15T13:18:10;39.05;;;21.00;;
24407;SDS011;12542;50.924;4.516;2023-02-15T13:20:59;44.25;;;21.00;;
24407;SDS011;12542;50.924;4.516;2023-02-15T13:23:55;41.33;;;20.02;;
24407;SDS011;12542;50.924;4.516;2023-02-15T13:26:26;45.05;;;22.08;;
24407;SDS011;12542;50.924;4.516;2023-02-15T13:28:56;44.80;;;23.25;;
24407;SDS011;12542;50.924;4.516;2023-02-15T13:31:30;43.63;;;23.20;;
24407;SDS011;12542;50.924;4.516;2023-02-15T13:33:59;38.97;;;21.60;;
24407;SDS011;12542;50.924;4.516;2023-02-15T14:03:21;50.50;;;25.00;;
24407;SDS011;12542;50.924;4.516;2023-02-15T14:14:15;41.58;;;22.58;;
24407;SDS011;12542;50.924;4.516;2023-02-15T14:20:56;43.63;;;22.20;;
24407;SDS011;12542;50.924;4.516;2023-02-15T14:25:49;44.78;;;23.58;;
24407;SDS011;12542;50.924;4.516;2023-02-15T14:31:23;47.00;;;24.05;;
24407;SDS011;12542;50.924;4.516;2023-02-15T14:33:57;67.47;;;39.42;;
24407;SDS011;12542;50.924;4.516;2023-02-15T14:36:25;49.33;;;27.48;;
24407;SDS011;12542;50.924;4.516;2023-02-15T14:41:58;46.83;;;23.63;;
24407;SDS011;12542;50.924;4.516;2023-02-15T14:44:35;45.33;;;24.60;;
24407;SDS011;12542;50.924;4.516;2023-02-15T14:47:26;43.85;;;23.42;;
24407;SDS011;12542;50.924;4.516;2023-02-15T14:50:00;43.28;;;23.90;;
24407;SDS011;12542;50.924;4.516;2023-02-15T14:59:18;47.70;;;25.02;;
24407;SDS011;12542;50.924;4.516;2023-02-15T15:01:34;45.53;;;23.80;;
24407;SDS011;12542;50.924;4.516;2023-02-15T15:06:31;47.00;;;25.27;;
24407;SDS011;12542;50.924;4.516;2023-02-15T15:09:00;51.33;;;26.95;;
24407;SDS011;12542;50.924;4.516;2023-02-15T15:11:49;48.55;;;25.95;;
24407;SDS011;12542;50.924;4.516;2023-02-15T15:16:58;46.70;;;26.92;;
24407;SDS011;12542;50.924;4.516;2023-02-15T15:22:18;50.92;;;26.63;;
24407;SDS011;12542;50.924;4.516;2023-02-15T15:24:47;53.22;;;27.05;;
24407;SDS011;12542;50.924;4.516;2023-02-15T15:42:06;45.08;;;25.15;;
24407;SDS011;12542;50.924;4.516;2023-02-15T15:49:48;52.17;;;28.23;;
24407;SDS011;12542;50.924;4.516;2023-02-15T15:52:16;57.47;;;28.05;;
24407;SDS011;12542;50.924;4.516;2023-02-15T15:54:44;53.58;;;27.85;;
24407;SDS011;12542;50.924;4.516;2023-02-15T15:57:17;56.00;;;29.48;;
24407;SDS011;12542;50.924;4.516;2023-02-15T15:59:57;54.08;;;28.20;;
24407;SDS011;12542;50.924;4.516;2023-02-15T16:02:24;49.15;;;27.85;;
24407;SDS011;12542;50.924;4.516;2023-02-15T16:04:51;62.67;;;31.08;;
24407;SDS011;12542;50.924;4.516;2023-02-15T16:07:21;60.70;;;28.23;;
24407;SDS011;12542;50.924;4.516;2023-02-15T16:09:59;56.70;;;29.17;;
24407;SDS011;12542;50.924;4.516;2023-02-15T16:12:29;53.72;;;27.17;;
24407;SDS011;12542;50.924;4.516;2023-02-15T16:14:58;50.53;;;28.30;;
24407;SDS011;12542;50.924;4.516;2023-02-15T16:17:38;55.53;;;29.35;;
24407;SDS011;12542;50.924;4.516;2023-02-15T16:22:51;63.38;;;29.42;;
24407;SDS011;12542;50.924;4.516;2023-02-15T16:28:13;54.22;;;29.35;;
24407;SDS011;12542;50.924;4.516;2023-02-15T16:30:39;52.88;;;28.27;;
24407;SDS011;12542;50.924;4.516;2023-02-15T16:35:38;59.53;;;29.90;;
24407;SDS011;12542;50.924;4.516;2023-02-15T16:38:08;59.63;;;30.10;;
24407;SDS011;12542;50.924;4.516;2023-02-15T16:40:56;62.63;;;30.50;;
24407;SDS011;12542;50.924;4.516;2023-02-15T16:43:26;59.08;;;29.75;;
24407;SDS011;12542;50.924;4.516;2023-02-15T16:45:58;58.90;;;29.73;;
24407;SDS011;12542;50.924;4.516;2023-02-15T16:48:29;57.58;;;30.42;;
24407;SDS011;12542;50.924;4.516;2023-02-15T16:50:55;57.92;;;30.02;;
24407;SDS011;12542;50.924;4.516;2023-02-15T16:53:24;56.70;;;29.80;;
24407;SDS011;12542;50.924;4.516;2023-02-15T16:55:55;66.35;;;30.80;;
24407;SDS011;12542;50.924;4.516;2023-02-15T16:58:36;60.72;;;30.27;;
24407;SDS011;12542;50.924;4.516;2023-02-15T17:01:10;65.88;;;30.73;;
24407;SDS011;12542;50.924;4.516;2023-02-15T17:03:39;59.45;;;31.40;;
24407;SDS011;12542;50.924;4.516;2023-02-15T17:06:18;63.47;;;30.38;;
24407;SDS011;12542;50.924;4.516;2023-02-15T17:11:20;56.78;;;28.38;;
24407;SDS011;12542;50.924;4.516;2023-02-15T17:17:12;67.22;;;28.65;;
24407;SDS011;12542;50.924;4.516;2023-02-15T17:19:23;55.75;;;28.67;;
24407;SDS011;12542;50.924;4.516;2023-02-15T17:22:04;60.63;;;30.00;;
24407;SDS011;12542;50.924;4.516;2023-02-15T17:24:35;62.27;;;31.23;;
24407;SDS011;12542;50.924;4.516;2023-02-15T17:27:05;56.80;;;29.25;;
24407;SDS011;12542;50.924;4.516;2023-02-15T17:29:48;63.25;;;29.83;;
24407;SDS011;12542;50.924;4.516;2023-02-15T17:32:21;55.75;;;28.15;;
24407;SDS011;12542;50.924;4.516;2023-02-15T17:34:49;63.15;;;32.15;;
24407;SDS011;12542;50.924;4.516;2023-02-15T17:37:31;64.88;;;32.17;;
24407;SDS011;12542;50.924;4.516;2023-02-15T17:39:58;64.53;;;31.55;;
24407;SDS011;12542;50.924;4.516;2023-02-15T17:42:25;59.85;;;31.17;;
24407;SDS011;12542;50.924;4.516;2023-02-15T17:44:52;66.15;;;31.48;;
24407;SDS011;12542;50.924;4.516;2023-02-15T17:47:22;63.28;;;30.45;;
24407;SDS011;12542;50.924;4.516;2023-02-15T17:49:54;77.00;;;37.80;;
24407;SDS011;12542;50.924;4.516;2023-02-15T17:52:19;62.83;;;32.45;;
24407;SDS011;12542;50.924;4.516;2023-02-15T17:54:45;61.03;;;31.85;;
24407;SDS011;12542;50.924;4.516;2023-02-15T17:57:29;63.00;;;33.13;;
24407;SDS011;12542;50.924;4.516;2023-02-15T17:59:55;60.90;;;30.73;;
24407;SDS011;12542;50.924;4.516;2023-02-15T18:02:42;56.58;;;30.88;;
24407;SDS011;12542;50.924;4.516;2023-02-15T18:05:27;58.67;;;31.17;;
24407;SDS011;12542;50.924;4.516;2023-02-15T18:08:15;58.05;;;30.90;;
24407;SDS011;12542;50.924;4.516;2023-02-15T18:11:00;59.90;;;29.75;;
24407;SDS011;12542;50.924;4.516;2023-02-15T18:13:45;58.20;;;30.25;;
24407;SDS011;12542;50.924;4.516;2023-02-15T18:16:15;63.97;;;31.33;;
24407;SDS011;12542;50.924;4.516;2023-02-15T18:18:45;59.90;;;30.77;;
24407;SDS011;12542;50.924;4.516;2023-02-15T18:21:11;54.25;;;29.30;;
24407;SDS011;12542;50.924;4.516;2023-02-15T18:23:37;67.57;;;32.38;;
24407;SDS011;12542;50.924;4.516;2023-02-15T18:26:04;64.43;;;32.05;;
24407;SDS011;12542;50.924;4.516;2023-02-15T18:28:30;61.53;;;31.20;;
24407;SDS011;12542;50.924;4.516;2023-02-15T18:30:56;66.80;;;30.48;;
24407;SDS011;12542;50.924;4.516;2023-02-15T18:33:26;59.83;;;31.38;;
24407;SDS011;12542;50.924;4.516;2023-02-15T18:35:56;61.60;;;30.98;;
24407;SDS011;12542;50.924;4.516;2023-02-15T18:38:22;62.15;;;30.85;;